Time;durP1;ratioP1;P1;durP2;ratioP2;P2;SDS_P1;SDS_P2;PMS_P1;PMS_P2;Temp;Humidity;BMP_temperature;BMP_pressure;BME280_temperature;BME280_humidity;BME280_pressure;Samples;Min_cycle;Max_cycle;Signal;HPM_P1;HPM_P2
2024/03/30 00:01:21;;;;;;;4.75;4.18;;;10.50;99.90;;;;;;4934006;29;20215;-90
2024/03/30 00:03:47;;;;;;;8.50;4.40;;;10.50;99.90;;;;;;4937056;29;20187;-90
2024/03/30 00:06:13;;;;;;;7.73;4.93;;;11.00;99.90;;;;;;4934682;29;20227;-90
2024/03/30 00:08:38;;;;;;;6.57;4.37;;;10.50;99.90;;;;;;4937094;29;20199;-90
2024/03/30 00:11:04;;;;;;;4.17;3.70;;;10.80;99.90;;;;;;4935959;29;20772;-90
2024/03/30 00:13:30;;;;;;;8.80;4.20;;;10.40;99.90;;;;;;4936719;29;20597;-89
2024/03/30 00:15:56;;;;;;;5.78;4.13;;;10.30;99.90;;;;;;4932946;29;20209;-90
2024/03/30 00:18:22;;;;;;;4.00;3.60;;;10.50;99.90;;;;;;4938037;29;20267;-90
2024/03/30 00:20:48;;;;;;;6.40;4.65;;;10.90;99.90;;;;;;4936061;28;20271;-90
2024/03/30 00:23:13;;;;;;;7.90;4.93;;;10.40;99.90;;;;;;4937055;29;20652;-90
2024/03/30 00:25:40;;;;;;;6.73;5.37;;;10.50;99.90;;;;;;4940103;28;20214;-90
2024/03/30 00:28:06;;;;;;;8.27;4.68;;;10.60;99.90;;;;;;4938629;29;20183;-90
2024/03/30 00:30:36;;;;;;;6.40;4.20;;;10.70;99.90;;;;;;4936586;29;20203;-90
2024/03/30 00:33:02;;;;;;;6.07;4.47;;;10.60;99.90;;;;;;4937225;29;20196;-90
2024/03/30 00:35:28;;;;;;;4.72;3.53;;;10.30;99.90;;;;;;4937285;28;20649;-90
2024/03/30 00:37:54;;;;;;;5.40;3.87;;;10.70;99.90;;;;;;4920027;29;20231;-90
2024/03/30 00:40:20;;;;;;;5.80;4.37;;;10.80;99.90;;;;;;4918941;29;20418;-90
2024/03/30 00:42:49;;;;;;;6.75;4.05;;;10.50;99.90;;;;;;4935567;29;20447;-90
2024/03/30 00:45:14;;;;;;;9.48;4.65;;;10.30;99.90;;;;;;4939466;29;20714;-90
2024/03/30 00:47:40;;;;;;;7.03;4.07;;;10.50;99.90;;;;;;4936998;29;20294;-90
2024/03/30 00:50:06;;;;;;;5.97;3.90;;;10.40;99.90;;;;;;4940017;29;20191;-90
2024/03/30 00:52:31;;;;;;;10.23;4.55;;;10.30;99.90;;;;;;4961884;28;20239;-90
2024/03/30 00:54:57;;;;;;;8.20;4.00;;;10.40;99.90;;;;;;4956960;28;20187;-90
2024/03/30 00:57:23;;;;;;;6.40;3.90;;;10.70;99.90;;;;;;4938143;29;20207;-90
2024/03/30 00:59:48;;;;;;;6.10;3.70;;;10.60;99.90;;;;;;4934254;28;20218;-90
2024/03/30 01:02:14;;;;;;;6.97;4.07;;;10.40;99.90;;;;;;4934654;29;20790;-90
2024/03/30 01:04:39;;;;;;;7.70;4.03;;;10.40;99.90;;;;;;4935823;29;20234;-90
2024/03/30 01:07:05;;;;;;;6.60;3.53;;;10.30;99.90;;;;;;4935027;29;20230;-90
2024/03/30 01:09:31;;;;;;;7.57;4.07;;;10.50;99.90;;;;;;4935922;28;20244;-90
2024/03/30 01:11:57;;;;;;;11.07;4.35;;;10.50;99.90;;;;;;4936213;29;20274;-90
2024/03/30 01:14:24;;;;;;;9.80;4.20;;;10.30;99.90;;;;;;4936077;28;20235;-90
2024/03/30 01:16:50;;;;;;;6.40;3.75;;;10.40;99.90;;;;;;4935132;28;20221;-90
2024/03/30 01:19:17;;;;;;;10.50;3.60;;;10.30;99.90;;;;;;4935085;29;20192;-90
2024/03/30 01:21:43;;;;;;;13.35;3.95;;;10.30;99.90;;;;;;4937399;29;20441;-90
2024/03/30 01:24:09;;;;;;;7.13;3.27;;;10.30;99.90;;;;;;4934419;29;20556;-90
2024/03/30 01:26:47;;;;;;;8.98;3.53;;;10.20;99.90;;;;;;4935017;28;20533;-90
2024/03/30 01:29:14;;;;;;;6.25;3.65;;;10.50;99.90;;;;;;4934281;29;20191;-90
2024/03/30 01:31:39;;;;;;;10.48;3.92;;;10.60;99.90;;;;;;4948050;28;20207;-90
2024/03/30 01:34:05;;;;;;;7.33;3.17;;;10.30;99.90;;;;;;4954512;28;20869;-90
2024/03/30 01:36:31;;;;;;;6.50;3.83;;;10.60;99.90;;;;;;4934077;29;20243;-90
2024/03/30 01:38:56;;;;;;;9.13;4.20;;;10.60;99.90;;;;;;4934848;29;20967;-90
2024/03/30 01:41:22;;;;;;;7.00;3.77;;;10.60;99.90;;;;;;4936466;29;20667;-90
2024/03/30 01:43:47;;;;;;;3.97;2.77;;;10.60;99.90;;;;;;4935146;28;20191;-90
2024/03/30 01:46:13;;;;;;;7.20;3.37;;;10.30;99.90;;;;;;4935560;29;20223;-90
2024/03/30 01:48:39;;;;;;;6.53;3.77;;;10.70;99.90;;;;;;4938366;28;20241;-90
2024/03/30 01:51:05;;;;;;;12.70;3.80;;;10.50;99.90;;;;;;4937538;29;20204;-90
2024/03/30 01:53:30;;;;;;;10.47;4.57;;;10.90;99.90;;;;;;4937191;28;20421;-90
2024/03/30 01:55:56;;;;;;;10.43;3.50;;;10.40;99.90;;;;;;4935883;29;20597;-90
2024/03/30 01:58:24;;;;;;;7.40;3.70;;;10.70;99.90;;;;;;4935222;29;20303;-90
2024/03/30 02:00:52;;;;;;;17.00;4.63;;;10.30;99.90;;;;;;4934196;28;20195;-90
2024/03/30 02:03:20;;;;;;;13.15;4.70;;;10.50;99.90;;;;;;4935250;29;20219;-91
2024/03/30 02:05:45;;;;;;;12.23;3.92;;;10.30;99.90;;;;;;4935625;28;20298;-90
2024/03/30 02:08:12;;;;;;;13.60;4.40;;;10.20;99.90;;;;;;4937594;29;20285;-90
2024/03/30 02:10:38;;;;;;;11.45;3.88;;;9.90;99.90;;;;;;4932548;28;20188;-89
2024/03/30 02:13:05;;;;;;;12.25;3.47;;;10.40;99.90;;;;;;4953337;28;20270;-90
2024/03/30 02:15:31;;;;;;;15.57;4.53;;;10.40;99.90;;;;;;4934563;28;20191;-90
2024/03/30 02:17:56;;;;;;;18.90;4.37;;;10.50;99.90;;;;;;4954000;28;20670;-90
2024/03/30 02:20:22;;;;;;;15.13;4.13;;;10.80;99.90;;;;;;4942884;29;20184;-90
2024/03/30 02:22:54;;;;;;;11.20;3.67;;;11.20;99.90;;;;;;4939919;28;20549;-90
2024/03/30 02:25:21;;;;;;;15.82;5.97;;;11.20;99.90;;;;;;4934773;29;20317;-90
2024/03/30 02:27:48;;;;;;;17.80;4.93;;;10.90;99.90;;;;;;4919284;29;20303;-90
2024/03/30 02:30:26;;;;;;;16.33;4.30;;;11.10;99.90;;;;;;4934543;29;20186;-90
2024/03/30 02:32:53;;;;;;;15.65;4.50;;;10.90;99.90;;;;;;4921776;28;20207;-91
2024/03/30 02:35:19;;;;;;;19.80;4.40;;;11.40;99.90;;;;;;4945411;29;20205;-90
2024/03/30 02:37:46;;;;;;;16.47;5.57;;;11.30;99.90;;;;;;4946985;29;20596;-90
2024/03/30 02:40:12;;;;;;;14.55;4.15;;;12.80;99.90;;;;;;4938616;29;20770;-91
2024/03/30 02:42:37;;;;;;;21.58;5.88;;;11.40;99.90;;;;;;4937873;28;20195;-90
2024/03/30 02:45:03;;;;;;;17.57;4.97;;;11.20;99.90;;;;;;4950227;28;20191;-88
2024/03/30 02:47:29;;;;;;;14.80;4.70;;;11.40;99.90;;;;;;4955268;29;20286;-88
2024/03/30 02:49:54;;;;;;;14.87;4.77;;;11.30;99.90;;;;;;4946994;29;20444;-91
2024/03/30 02:52:20;;;;;;;19.93;4.53;;;11.40;99.90;;;;;;4935551;29;20733;-91
2024/03/30 02:54:47;;;;;;;20.43;5.10;;;11.30;99.90;;;;;;4934969;29;20191;-88
2024/03/30 02:57:12;;;;;;;20.35;5.18;;;11.40;99.90;;;;;;4943027;29;20211;-89
2024/03/30 02:59:38;;;;;;;17.30;3.90;;;11.40;99.90;;;;;;4950944;28;20213;-89
2024/03/30 03:02:03;;;;;;;16.97;5.43;;;11.40;99.90;;;;;;4953633;29;20187;-89
2024/03/30 03:04:29;;;;;;;21.20;4.73;;;11.40;99.90;;;;;;4954660;28;20192;-89
2024/03/30 03:06:55;;;;;;;23.20;5.70;;;11.30;99.90;;;;;;4932634;28;20602;-89
2024/03/30 03:09:20;;;;;;;28.30;5.73;;;11.60;99.90;;;;;;4935857;29;20177;-90
2024/03/30 03:11:46;;;;;;;18.60;4.60;;;11.80;99.90;;;;;;4936581;28;20661;-89
2024/03/30 03:14:11;;;;;;;18.67;5.10;;;11.70;99.90;;;;;;4951312;28;20264;-89
2024/03/30 03:16:37;;;;;;;20.50;5.90;;;11.50;99.90;;;;;;4960948;28;20212;-89
2024/03/30 03:19:02;;;;;;;25.07;5.67;;;11.80;99.90;;;;;;4955280;29;20295;-89
2024/03/30 03:21:28;;;;;;;21.07;7.17;;;11.20;99.90;;;;;;4938698;29;20277;-89
2024/03/30 03:23:53;;;;;;;19.23;5.27;;;11.40;99.90;;;;;;4937256;28;20187;-89
2024/03/30 03:26:19;;;;;;;21.63;5.07;;;11.40;99.90;;;;;;4942329;29;20247;-89
2024/03/30 03:28:44;;;;;;;26.87;5.60;;;11.40;99.90;;;;;;4937513;29;20285;-89
2024/03/30 03:31:10;;;;;;;17.97;5.00;;;11.50;99.90;;;;;;4938287;29;20283;-90
2024/03/30 03:33:36;;;;;;;22.43;6.47;;;11.00;99.90;;;;;;4941248;29;20669;-89
2024/03/30 03:36:02;;;;;;;17.40;5.03;;;11.60;99.90;;;;;;4947685;29;20215;-89
2024/03/30 03:38:27;;;;;;;15.30;4.37;;;11.40;99.90;;;;;;4942687;29;20185;-89
2024/03/30 03:40:56;;;;;;;18.93;4.30;;;11.30;99.90;;;;;;4939298;29;20274;-90
2024/03/30 03:43:22;;;;;;;19.48;4.93;;;11.80;99.90;;;;;;4936728;28;20256;-90
2024/03/30 03:45:48;;;;;;;19.23;5.30;;;11.20;99.90;;;;;;4977336;28;20211;-89
2024/03/30 03:48:14;;;;;;;15.57;5.63;;;11.60;99.90;;;;;;4938936;29;20585;-90
2024/03/30 03:50:41;;;;;;;20.67;5.50;;;11.30;99.90;;;;;;4922750;28;20188;-90
2024/03/30 03:53:07;;;;;;;19.65;5.10;;;11.00;99.90;;;;;;4937086;29;20199;-90
2024/03/30 03:55:33;;;;;;;19.50;4.15;;;11.50;99.90;;;;;;4938496;28;20249;-90
2024/03/30 03:58:02;;;;;;;20.88;4.85;;;11.20;99.90;;;;;;4936165;28;20192;-89
2024/03/30 04:00:28;;;;;;;26.40;5.55;;;11.30;99.90;;;;;;4934292;28;20200;-90
2024/03/30 04:02:53;;;;;;;16.83;4.70;;;11.20;99.90;;;;;;4937459;29;20187;-90
2024/03/30 04:05:19;;;;;;;19.53;5.60;;;11.60;99.90;;;;;;4941157;29;20203;-89
2024/03/30 04:07:44;;;;;;;21.93;7.87;;;11.60;99.90;;;;;;4934486;29;20212;-90
2024/03/30 04:10:14;;;;;;;16.93;4.83;;;11.00;99.90;;;;;;4936361;29;20191;-90
2024/03/30 04:12:39;;;;;;;20.30;6.22;;;11.20;99.90;;;;;;4934320;29;20191;-89
2024/03/30 04:15:05;;;;;;;19.13;5.30;;;11.70;99.90;;;;;;4935780;29;20194;-89
2024/03/30 04:17:34;;;;;;;21.45;5.55;;;11.20;99.90;;;;;;4920002;29;20205;-90
2024/03/30 04:20:00;;;;;;;24.42;5.70;;;11.40;99.90;;;;;;4920950;28;20240;-90
2024/03/30 04:22:26;;;;;;;18.70;5.90;;;11.50;99.90;;;;;;4936511;28;20195;-90
2024/03/30 04:24:51;;;;;;;20.10;6.23;;;11.50;99.90;;;;;;4952915;28;20419;-90
2024/03/30 04:27:17;;;;;;;21.83;5.90;;;11.40;99.90;;;;;;4937913;29;20226;-90
2024/03/30 04:29:42;;;;;;;18.27;4.90;;;11.00;99.90;;;;;;4936571;29;20568;-89
2024/03/30 04:32:08;;;;;;;24.10;6.07;;;11.30;99.90;;;;;;4938467;29;20187;-90
2024/03/30 04:34:35;;;;;;;20.00;4.60;;;11.10;99.90;;;;;;4938548;29;20190;-90
2024/03/30 04:37:01;;;;;;;28.95;5.68;;;11.40;99.90;;;;;;4937570;29;20213;-90
2024/03/30 04:39:26;;;;;;;19.70;3.87;;;11.00;99.90;;;;;;4936144;29;20519;-89
2024/03/30 04:41:52;;;;;;;17.20;5.73;;;10.90;99.90;;;;;;4934456;29;20200;-90
2024/03/30 04:44:17;;;;;;;22.20;5.40;;;11.20;99.90;;;;;;4937477;29;20183;-90
2024/03/30 04:46:43;;;;;;;36.77;6.50;;;11.00;99.90;;;;;;4941879;28;20225;-90
2024/03/30 04:49:08;;;;;;;13.77;4.40;;;11.20;99.90;;;;;;4936801;29;20546;-90
2024/03/30 04:51:34;;;;;;;17.43;5.33;;;11.30;99.90;;;;;;4933012;29;20728;-89
2024/03/30 04:53:59;;;;;;;20.03;6.80;;;11.00;99.90;;;;;;4936399;29;20237;-90
2024/03/30 04:56:25;;;;;;;22.37;4.73;;;10.90;99.90;;;;;;4936502;29;20212;-89
2024/03/30 04:58:50;;;;;;;15.13;4.40;;;10.60;99.90;;;;;;4940221;29;20192;-90
2024/03/30 05:01:16;;;;;;;35.40;5.73;;;11.10;99.90;;;;;;4954552;29;20180;-90
2024/03/30 05:03:42;;;;;;;14.53;3.97;;;10.90;99.90;;;;;;4956862;29;20182;-89
2024/03/30 05:06:07;;;;;;;16.60;5.37;;;11.00;99.90;;;;;;4972069;28;20226;-90
2024/03/30 05:08:33;;;;;;;17.30;4.80;;;11.10;99.90;;;;;;4953237;29;20216;-89
2024/03/30 05:10:59;;;;;;;20.83;4.53;;;10.70;99.90;;;;;;4948965;29;20517;-89
2024/03/30 05:13:26;;;;;;;21.77;6.78;;;10.70;99.90;;;;;;4943931;29;20510;-90
2024/03/30 05:15:52;;;;;;;18.80;5.20;;;10.50;99.90;;;;;;4941722;28;20216;-90
2024/03/30 05:18:18;;;;;;;22.97;4.93;;;10.80;99.90;;;;;;4938108;29;20186;-90
2024/03/30 05:20:53;;;;;;;19.92;6.68;;;10.70;99.90;;;;;;4936955;28;20427;-90
2024/03/30 05:23:22;;;;;;;18.77;4.88;;;10.60;99.90;;;;;;4951860;28;20180;-90
2024/03/30 05:25:49;;;;;;;21.42;5.88;;;10.60;99.90;;;;;;4938078;28;20258;-90
2024/03/30 05:28:17;;;;;;;21.85;6.22;;;10.70;99.90;;;;;;4938489;29;20286;-90
2024/03/30 05:30:43;;;;;;;16.35;4.45;;;10.70;99.90;;;;;;4952704;28;20218;-90
2024/03/30 05:33:10;;;;;;;15.63;5.47;;;10.50;99.90;;;;;;4960456;28;20187;-89
2024/03/30 05:35:39;;;;;;;21.13;4.20;;;11.20;99.90;;;;;;4946495;28;20551;-89
2024/03/30 05:38:05;;;;;;;19.55;4.13;;;11.40;99.90;;;;;;4934035;29;20283;-89
2024/03/30 05:40:32;;;;;;;16.15;4.65;;;10.80;99.90;;;;;;4936701;29;20267;-90
2024/03/30 05:43:05;;;;;;;19.50;4.72;;;11.10;99.90;;;;;;4931305;29;20184;-89
2024/03/30 05:45:31;;;;;;;19.67;5.75;;;10.70;99.90;;;;;;4935364;29;20200;-89
2024/03/30 05:47:57;;;;;;;15.65;4.45;;;11.30;99.90;;;;;;4937565;29;20259;-90
2024/03/30 05:50:24;;;;;;;15.43;3.50;;;11.40;99.90;;;;;;4936283;29;20185;-89
2024/03/30 05:52:50;;;;;;;22.85;5.70;;;11.20;99.70;;;;;;4947796;28;20192;-89
2024/03/30 05:55:16;;;;;;;16.95;4.30;;;11.20;99.60;;;;;;4952922;28;20203;-89
2024/03/30 05:57:42;;;;;;;15.40;3.53;;;11.80;99.70;;;;;;4953310;28;20242;-88
2024/03/30 06:00:10;;;;;;;16.38;4.80;;;11.40;99.30;;;;;;4935178;29;20452;-88
2024/03/30 06:02:37;;;;;;;15.68;4.65;;;11.60;99.10;;;;;;4937593;29;20380;-88
2024/03/30 06:05:03;;;;;;;19.85;5.45;;;11.50;99.10;;;;;;4935187;28;20198;-88
2024/03/30 06:07:28;;;;;;;16.70;4.73;;;11.80;98.60;;;;;;4936048;28;20207;-88
2024/03/30 06:09:54;;;;;;;19.10;4.20;;;12.30;98.00;;;;;;4935710;28;20498;-88
2024/03/30 06:12:19;;;;;;;21.43;5.13;;;12.30;97.40;;;;;;4936612;29;20183;-88
2024/03/30 06:14:46;;;;;;;18.07;5.73;;;12.30;96.80;;;;;;4935576;29;20599;-89
2024/03/30 06:17:11;;;;;;;19.20;5.32;;;12.90;96.30;;;;;;4946216;28;20212;-89
2024/03/30 06:19:37;;;;;;;10.90;4.00;;;12.60;95.40;;;;;;4956457;28;20523;-88
2024/03/30 06:22:03;;;;;;;15.70;4.73;;;13.00;94.50;;;;;;4956352;28;20206;-88
2024/03/30 06:24:28;;;;;;;16.13;5.00;;;13.30;93.70;;;;;;4951885;28;20280;-88
2024/03/30 06:26:54;;;;;;;18.00;4.97;;;15.70;94.40;;;;;;4936089;29;20248;-88
2024/03/30 06:29:19;;;;;;;18.13;5.10;;;13.50;92.90;;;;;;4931599;28;20276;-88
2024/03/30 06:31:46;;;;;;;23.33;4.82;;;15.30;93.70;;;;;;4936505;28;20271;-88
2024/03/30 06:34:12;;;;;;;13.57;4.17;;;14.20;92.90;;;;;;4935889;28;20500;-88
2024/03/30 06:36:38;;;;;;;12.20;3.13;;;14.20;92.00;;;;;;4938800;28;20352;-90
2024/03/30 06:39:03;;;;;;;18.10;4.50;;;14.70;91.40;;;;;;4950857;28;20215;-90
2024/03/30 06:44:14;;;;;;;16.42;5.25;;;14.50;90.20;;;;;;4948743;28;20456;-91
2024/03/30 06:46:40;;;;;;;16.80;3.97;;;15.00;89.20;;;;;;4940542;28;20216;-90
2024/03/30 06:49:05;;;;;;;16.73;4.32;;;15.50;85.70;;;;;;4940337;28;20488;-90
2024/03/30 06:51:31;;;;;;;13.63;3.67;;;15.50;87.20;;;;;;4942800;28;20880;-88
2024/03/30 06:53:57;;;;;;;16.60;4.20;;;15.90;85.60;;;;;;4943624;28;20200;-88
2024/03/30 06:56:23;;;;;;;16.33;3.97;;;15.30;84.30;;;;;;4942810;29;20204;-88
2024/03/30 06:58:49;;;;;;;22.45;4.75;;;15.90;75.80;;;;;;4944608;28;20193;-88
2024/03/30 07:01:14;;;;;;;14.67;3.60;;;16.10;74.80;;;;;;4946770;28;20211;-88
2024/03/30 07:03:40;;;;;;;15.80;5.87;;;15.80;71.30;;;;;;4942900;28;20463;-88
2024/03/30 07:06:06;;;;;;;13.87;3.87;;;16.70;71.90;;;;;;4939931;28;20229;-89
2024/03/30 07:08:32;;;;;;;17.10;3.80;;;16.70;73.50;;;;;;4941217;29;20605;-89
2024/03/30 07:10:57;;;;;;;23.70;4.37;;;16.90;70.50;;;;;;4942704;28;20958;-88
2024/03/30 07:13:23;;;;;;;19.23;5.33;;;16.80;69.00;;;;;;4943338;28;20187;-89
2024/03/30 07:15:49;;;;;;;19.63;5.17;;;16.60;72.30;;;;;;4950741;28;20184;-88
2024/03/30 07:18:15;;;;;;;24.05;4.15;;;16.80;76.30;;;;;;4930720;28;20207;-89
2024/03/30 07:20:40;;;;;;;22.77;4.47;;;17.30;75.50;;;;;;4944422;29;20433;-89
2024/03/30 07:23:06;;;;;;;12.27;4.17;;;16.40;74.70;;;;;;4960103;28;20197;-86
2024/03/30 07:25:35;;;;;;;16.97;3.70;;;16.80;74.60;;;;;;4959460;28;20283;-87
2024/03/30 07:28:01;;;;;;;19.88;4.78;;;16.60;72.50;;;;;;4946629;28;20181;-87
2024/03/30 07:30:26;;;;;;;20.63;4.63;;;16.70;71.50;;;;;;4945026;28;20236;-91
2024/03/30 07:32:52;;;;;;;19.47;5.30;;;16.60;73.10;;;;;;4959059;28;20177;-90
2024/03/30 07:35:17;;;;;;;16.67;4.63;;;17.20;72.40;;;;;;4944641;28;20185;-89
2024/03/30 07:37:43;;;;;;;23.97;5.17;;;16.40;72.40;;;;;;4944818;28;20209;-89
2024/03/30 07:40:09;;;;;;;20.50;5.43;;;16.40;75.30;;;;;;4941889;28;20288;-88
2024/03/30 07:42:34;;;;;;;29.45;5.57;;;16.70;77.60;;;;;;4937604;28;20307;-89
2024/03/30 07:45:00;;;;;;;21.07;4.70;;;16.50;77.20;;;;;;4938228;29;20271;-90
2024/03/30 07:47:25;;;;;;;13.63;4.73;;;16.10;76.80;;;;;;4939213;29;20895;-90
2024/03/30 07:49:51;;;;;;;19.83;5.13;;;16.70;79.20;;;;;;4937624;29;20212;-90
2024/03/30 07:52:16;;;;;;;14.93;6.53;;;16.50;82.10;;;;;;4936250;29;20189;-91
2024/03/30 07:54:43;;;;;;;19.57;5.63;;;16.50;84.40;;;;;;4944075;29;20464;-91
2024/03/30 07:57:08;;;;;;;13.15;5.00;;;16.20;85.90;;;;;;4923058;29;20719;-90
2024/03/30 07:59:34;;;;;;;14.10;4.83;;;16.30;87.10;;;;;;4936842;29;20185;-88
2024/03/30 08:01:59;;;;;;;19.83;5.67;;;16.70;88.40;;;;;;4941036;29;20197;-88
2024/03/30 08:04:25;;;;;;;17.10;5.17;;;16.40;88.60;;;;;;4941567;29;20250;-88
2024/03/30 08:06:55;;;;;;;19.00;5.30;;;15.80;89.20;;;;;;4947761;28;20221;-88
2024/03/30 08:09:22;;;;;;;19.80;5.57;;;16.00;88.80;;;;;;4950938;29;20209;-88
2024/03/30 08:11:48;;;;;;;20.45;5.40;;;15.80;90.00;;;;;;4939491;29;20228;-88
2024/03/30 08:14:16;;;;;;;17.48;5.13;;;15.90;89.10;;;;;;4937918;29;20252;-88
2024/03/30 08:16:44;;;;;;;13.82;4.90;;;16.00;89.90;;;;;;4939676;29;20212;-88
2024/03/30 08:19:10;;;;;;;16.25;5.13;;;15.70;90.30;;;;;;4937569;28;20194;-88
2024/03/30 08:21:36;;;;;;;20.55;5.35;;;15.90;90.30;;;;;;4921818;29;20217;-89
2024/03/30 08:24:02;;;;;;;19.40;5.40;;;15.90;89.20;;;;;;4958701;28;20193;-88
2024/03/30 08:26:28;;;;;;;17.43;5.50;;;15.80;89.20;;;;;;4942113;29;20220;-88
2024/03/30 08:28:54;;;;;;;20.23;5.37;;;16.00;90.20;;;;;;4923220;29;20433;-89
2024/03/30 08:31:20;;;;;;;19.47;6.10;;;15.70;90.10;;;;;;4921415;28;20268;-89
2024/03/30 08:33:47;;;;;;;24.25;6.93;;;15.80;90.30;;;;;;4954915;28;20332;-89
2024/03/30 08:36:12;;;;;;;20.65;7.72;;;16.00;91.10;;;;;;4936062;28;20219;-89
2024/03/30 08:38:39;;;;;;;20.73;7.10;;;15.90;91.40;;;;;;4939633;29;20197;-89
2024/03/30 08:41:04;;;;;;;21.50;7.93;;;15.60;91.20;;;;;;4934259;28;20193;-89
2024/03/30 08:43:30;;;;;;;17.80;5.83;;;15.60;92.00;;;;;;4939756;29;20691;-89
2024/03/30 08:45:57;;;;;;;12.73;5.47;;;15.60;92.50;;;;;;4937501;28;20267;-89
2024/03/30 08:48:23;;;;;;;18.98;5.15;;;16.10;93.20;;;;;;4936354;29;20674;-88
2024/03/30 08:50:50;;;;;;;17.37;7.10;;;15.70;92.20;;;;;;4939337;29;20202;-88
2024/03/30 08:53:16;;;;;;;26.17;6.90;;;15.60;92.50;;;;;;4938832;28;20187;-88
2024/03/30 08:55:41;;;;;;;18.98;7.20;;;15.40;92.70;;;;;;4939970;29;20223;-88
2024/03/30 08:58:07;;;;;;;18.47;6.87;;;15.40;93.40;;;;;;4939530;28;20277;-88
2024/03/30 09:00:35;;;;;;;22.07;7.50;;;15.30;94.10;;;;;;4943477;29;20189;-89
2024/03/30 09:03:01;;;;;;;26.13;6.80;;;15.20;94.70;;;;;;4959275;28;20456;-88
2024/03/30 09:05:26;;;;;;;17.58;6.10;;;15.30;94.80;;;;;;4958120;29;20244;-88
2024/03/30 09:07:53;;;;;;;15.67;6.70;;;16.30;95.30;;;;;;4940375;29;20698;-88
2024/03/30 09:10:20;;;;;;;19.63;7.22;;;15.30;94.80;;;;;;4938872;29;20185;-88
2024/03/30 09:12:46;;;;;;;27.27;8.60;;;15.20;94.50;;;;;;4940691;29;20191;-88
2024/03/30 09:15:11;;;;;;;24.63;6.40;;;14.60;95.00;;;;;;4936943;29;20262;-88
2024/03/30 09:17:37;;;;;;;20.53;8.23;;;14.30;95.60;;;;;;4937827;29;20662;-89
2024/03/30 09:20:03;;;;;;;21.10;7.20;;;14.70;96.60;;;;;;4937314;29;20189;-89
2024/03/30 09:22:28;;;;;;;19.53;6.00;;;14.70;96.50;;;;;;4938442;29;20263;-89
2024/03/30 09:24:55;;;;;;;19.63;6.37;;;14.70;95.90;;;;;;4938407;28;20252;-89
2024/03/30 09:27:23;;;;;;;22.75;8.60;;;14.90;94.00;;;;;;4939992;29;20212;-88
2024/03/30 09:29:48;;;;;;;14.57;6.45;;;15.90;95.90;;;;;;4922006;29;20199;-86
2024/03/30 09:32:14;;;;;;;19.07;6.33;;;14.90;96.20;;;;;;4934954;28;20189;-89
2024/03/30 09:34:39;;;;;;;23.47;6.83;;;15.60;96.30;;;;;;4937688;29;20194;-89
2024/03/30 09:37:08;;;;;;;18.83;4.90;;;15.80;96.40;;;;;;4938742;28;20223;-89
2024/03/30 09:39:39;;;;;;;22.35;7.28;;;15.70;96.20;;;;;;4940337;29;20650;-89
2024/03/30 09:42:07;;;;;;;14.93;5.50;;;15.40;95.80;;;;;;4935798;28;20268;-89
2024/03/30 09:44:36;;;;;;;23.90;6.68;;;15.40;95.70;;;;;;4937243;29;20920;-89
2024/03/30 09:47:03;;;;;;;18.60;6.97;;;15.60;96.30;;;;;;4936550;28;20227;-89
2024/03/30 09:49:32;;;;;;;29.00;7.00;;;15.60;96.20;;;;;;4923553;29;20701;-89
2024/03/30 09:52:01;;;;;;;25.73;6.93;;;15.50;96.80;;;;;;4937024;29;20709;-89
2024/03/30 09:54:30;;;;;;;25.15;6.38;;;15.50;96.70;;;;;;4941431;29;20187;-89
2024/03/30 09:56:56;;;;;;;17.08;6.32;;;15.20;97.10;;;;;;4939026;28;20204;-89
2024/03/30 09:59:22;;;;;;;23.98;6.20;;;15.10;96.20;;;;;;4938621;29;20181;-89
2024/03/30 10:01:47;;;;;;;17.95;6.22;;;15.70;96.50;;;;;;4938017;29;20177;-88
2024/03/30 10:04:16;;;;;;;22.40;6.70;;;15.20;96.50;;;;;;4938325;29;20842;-89
2024/03/30 10:06:57;;;;;;;23.77;7.55;;;15.10;96.20;;;;;;4936175;29;20223;-89
2024/03/30 10:09:26;;;;;;;21.75;7.15;;;15.50;96.80;;;;;;4953331;28;20184;-89
2024/03/30 10:12:03;;;;;;;22.13;6.18;;;15.10;96.60;;;;;;4948395;28;20678;-89
2024/03/30 10:14:35;;;;;;;22.77;7.20;;;15.50;97.30;;;;;;4936223;29;20180;-89
2024/03/30 10:17:02;;;;;;;19.90;6.55;;;15.70;96.90;;;;;;4952609;28;20241;-89
2024/03/30 10:19:32;;;;;;;15.80;5.80;;;15.30;96.00;;;;;;4950183;28;20240;-89
2024/03/30 10:21:58;;;;;;;24.48;7.82;;;15.80;95.70;;;;;;4939553;28;20273;-89
2024/03/30 10:24:25;;;;;;;24.95;7.05;;;15.50;95.80;;;;;;4937775;29;20271;-89
2024/03/30 10:26:51;;;;;;;25.38;7.15;;;15.60;96.00;;;;;;4939770;29;20220;-89
2024/03/30 10:29:16;;;;;;;32.30;7.50;;;16.00;96.80;;;;;;4938349;28;20243;-88
2024/03/30 10:31:42;;;;;;;19.07;5.90;;;16.80;97.10;;;;;;4941131;29;20185;-88
2024/03/30 10:34:08;;;;;;;19.27;6.35;;;17.50;96.60;;;;;;4937169;29;20191;-89
2024/03/30 10:36:34;;;;;;;25.07;7.17;;;14.40;94.70;;;;;;4906427;29;20205;-88
2024/03/30 10:39:00;;;;;;;24.00;7.40;;;17.60;96.00;;;;;;4938378;29;20459;-88
2024/03/30 10:41:29;;;;;;;20.58;7.00;;;16.20;96.00;;;;;;4960540;28;20181;-89
2024/03/30 10:43:55;;;;;;;20.75;7.20;;;17.00;96.40;;;;;;4944503;29;20262;-87
2024/03/30 10:46:23;;;;;;;19.90;6.40;;;16.30;95.50;;;;;;4943941;28;20231;-87
2024/03/30 10:48:51;;;;;;;34.28;6.88;;;17.00;94.40;;;;;;4973113;28;20192;-87
2024/03/30 10:51:23;;;;;;;31.02;7.60;;;18.30;95.40;;;;;;4976205;28;20193;-87
2024/03/30 10:53:49;;;;;;;23.42;7.45;;;16.90;94.30;;;;;;4955765;28;20195;-87
2024/03/30 10:56:28;;;;;;;22.43;6.70;;;17.10;94.30;;;;;;4938612;28;20299;-87
2024/03/30 10:58:59;;;;;;;26.08;7.55;;;16.70;94.50;;;;;;4942101;29;20280;-87
2024/03/30 11:01:28;;;;;;;23.50;7.30;;;16.60;94.60;;;;;;4954370;28;20276;-87
2024/03/30 11:03:54;;;;;;;26.70;9.48;;;16.70;94.60;;;;;;4940500;28;20195;-87
2024/03/30 11:06:21;;;;;;;30.83;8.20;;;17.70;94.90;;;;;;4927447;29;20224;-87
2024/03/30 11:08:49;;;;;;;20.73;7.03;;;17.00;94.20;;;;;;4959527;28;20551;-88
2024/03/30 11:11:15;;;;;;;25.40;7.28;;;17.40;94.00;;;;;;4958458;28;20681;-88
2024/03/30 11:13:40;;;;;;;22.30;7.93;;;17.40;93.70;;;;;;4939863;29;20216;-88
2024/03/30 11:16:08;;;;;;;37.57;8.87;;;19.10;95.30;;;;;;4939225;29;20213;-88
2024/03/30 11:18:54;;;;;;;30.52;9.27;;;19.10;95.10;;;;;;4937687;29;20189;-88
2024/03/30 11:21:39;;;;;;;26.63;7.20;;;19.70;95.80;;;;;;4937976;28;20228;-89
2024/03/30 11:24:10;;;;;;;23.90;6.90;;;19.80;94.90;;;;;;4945313;28;20284;-89
2024/03/30 11:26:40;;;;;;;16.60;7.25;;;19.20;94.40;;;;;;4935505;29;20212;-89
2024/03/30 11:29:25;;;;;;;27.50;9.60;;;18.90;93.30;;;;;;4934549;29;20209;-90
2024/03/30 11:32:25;;;;;;;30.10;9.65;;;18.30;91.90;;;;;;4956319;28;20241;-88
2024/03/30 11:35:00;;;;;;;30.38;10.20;;;18.40;91.20;;;;;;4935651;29;20188;-89
2024/03/30 11:37:27;;;;;;;28.80;9.35;;;19.80;92.40;;;;;;4957828;28;20657;-88
2024/03/30 11:40:17;;;;;;;21.98;8.02;;;19.60;92.80;;;;;;4944410;29;20177;-90
2024/03/30 11:43:24;;;;;;;22.30;8.00;;;18.80;91.70;;;;;;4958526;28;20209;-90
2024/03/30 11:46:13;;;;;;;22.25;7.93;;;18.90;91.40;;;;;;4900168;29;20207;-89
2024/03/30 11:48:41;;;;;;;27.65;8.00;;;19.20;92.30;;;;;;4944527;29;20268;-89
2024/03/30 11:51:17;;;;;;;22.42;9.45;;;17.90;90.70;;;;;;4945547;28;20272;-89
2024/03/30 11:53:43;;;;;;;27.50;8.75;;;20.10;92.00;;;;;;4966821;29;20181;-88
2024/03/30 11:56:12;;;;;;;27.03;7.67;;;19.00;92.20;;;;;;4954742;29;20260;-89
2024/03/30 11:58:41;;;;;;;24.00;8.10;;;18.50;91.90;;;;;;4957521;28;20186;-89
2024/03/30 12:01:09;;;;;;;23.60;8.95;;;19.10;92.70;;;;;;4960353;28;20189;-88
2024/03/30 12:03:36;;;;;;;24.73;7.88;;;19.10;93.30;;;;;;4947755;29;20264;-88
2024/03/30 12:06:03;;;;;;;25.33;7.82;;;18.80;92.50;;;;;;4940966;29;20217;-89
2024/03/30 12:08:31;;;;;;;20.42;7.07;;;19.00;92.40;;;;;;4923982;28;20273;-89
2024/03/30 12:11:02;;;;;;;19.20;7.63;;;19.10;92.80;;;;;;4943101;28;20189;-90
2024/03/30 12:13:38;;;;;;;23.88;8.00;;;18.90;93.30;;;;;;4942087;28;20325;-89
2024/03/30 12:16:04;;;;;;;22.13;7.57;;;19.20;93.60;;;;;;4956094;28;20259;-90
2024/03/30 12:18:30;;;;;;;23.83;8.18;;;18.90;93.90;;;;;;4941877;28;20279;-90
2024/03/30 12:20:56;;;;;;;24.80;7.60;;;19.30;94.00;;;;;;4957428;28;20682;-90
2024/03/30 12:23:24;;;;;;;21.03;8.13;;;19.20;94.00;;;;;;4926100;28;20200;-89
2024/03/30 12:25:51;;;;;;;28.08;11.85;;;19.20;93.90;;;;;;4957594;28;21321;-90
2024/03/30 12:28:18;;;;;;;24.52;9.27;;;19.30;93.90;;;;;;4945359;28;20185;-89
2024/03/30 12:30:49;;;;;;;24.55;7.35;;;19.20;94.40;;;;;;4949830;29;20208;-89
2024/03/30 12:33:15;;;;;;;25.98;7.35;;;18.80;93.80;;;;;;4946895;29;20212;-90
2024/03/30 12:35:44;;;;;;;28.17;8.65;;;19.10;94.00;;;;;;4921258;29;20208;-90
2024/03/30 12:38:21;;;;;;;22.30;7.07;;;19.10;93.60;;;;;;4952910;28;20178;-90
2024/03/30 12:40:47;;;;;;;32.15;9.05;;;19.00;93.40;;;;;;4955924;28;20858;-89